Plains, Texas
Current Conditions -  °F | °C
As of 6:55 PM on Monday 26 Jan 2015 (Local Time) from KGNC Reporting Station
Clear Clear  
Wind Chill: 55°   Ceiling: Unl
Heat Index: 55°   Visibility: 10mi
Dew Point: 31°   Wind: 6mph
Humidity: 40%   Direction: 230°SW
Pressure: 30.24"   Gusts: NA
Location:  33.19°N, 102.83°W
Report Text: KGNC 270055Z AUTO 23005KT 10SM CLR 13/00 A3024 RMK AO2 T01271005
Loading
Personal Weather Stations






























Interactive Weather Map New forecast layout! Learn more

10-Day Weather Forecast

Advertisements
Track Severe Weather on mobile